首页
METAR-TAF:

METAR-TAF

机场 :

内塔吉·苏巴斯·钱德拉·鲍斯国际机场

加尔各答, 印度

纬度: 22-39N, 经度: 088-27E, 海拔: 4米

当前天气观测

该预报发布于31分钟前的15:00 UTC
风速5节,风向东南
温度 29°C
湿度 89%
气压 1000 hPa
能見度: 3200
少量云层高于2000英尺
散云层高于10000英尺

METAR: VECC 161500Z 13005KT 3200 HZ FEW020 SCT100 29/27 Q1000 NOSIG

时间: 21:01 (15:31 UTC)

预报

该预报发布于1小时和31分钟前的14:00 UTC
预报有效从16日的 15点(UTC)到 16日的 24点(UTC)
风速6节,风向东转东南
能見度: 3000
散云层高于1800英尺
多云层高于10000英尺
小雨, 霾
成为
从 16日的 20点(UTC)到 16日的 22点(UTC)
能見度: 2600
小雨, 霾

TAF: VECC 161400Z 1615/1624 12006KT 3000 -RA HZ SCT018 BKN100 BECMG 1620/1622 2600 -RA HZ

超过4000个机场的气象观测和天气预报(METAR&TAF报告)。

可查询的气象台以黄色和红色小点在地图上表示。

将鼠标移到小点上方,可查看气象台名称。

然后点击查看天气观测和预报。

如需切换地图:点击带黑十字的绿色按钮放大地图;点击带横线的绿色按钮缩小地图;或者点击绿色箭头查看邻近地区的地图。


METAR-TAF: